Magnum 1 — CRLV — position and weather

sailwx.info

Track history (hours):
 
Tides and Currents Weather Stations Pressure Air Temp Water Temp Dewpoint Dewpoint Depression Visibility Wind Speed Wind Dir Waves Ship Positions

Magnum 1

Last reported at 2015-Mar-28 18:09 UTC. Time now 2015-Mar-31 09:47 UTC.
Position N 38°42' W 009°13'.

Length 11 m.

Type: Sailing vessel. MMSI: 263970000.

Date/timePositionNaut miles runAvg speedWind from/ knotsBaromVisibWave heightAir tempDewpointWater temp
2015-Mar-28 18:09N 38°42' W 009°13'0 0.3
2015-Mar-28 17:25N 38°41' W 009°13'4 4.6
2015-Mar-28 16:33N 38°41' W 009°18'1 1.0
2015-Mar-28 15:31N 38°41' W 009°19'0 0.0
2015-Mar-28 14:22N 38°41' W 009°19'1 0.7
2015-Mar-28 13:32N 38°41' W 009°18'5 0.1
2015-Mar-26 16:31N 38°42' W 009°13'0 0.0
2015-Mar-26 14:31N 38°42' W 009°13'0 0.0
2015-Mar-26 12:25N 38°42' W 009°13'0 0.0
2015-Mar-26 10:13N 38°42' W 009°13'0 0.0
2015-Mar-26 09:07N 38°42' W 009°13'0 0.0
2015-Mar-26 08:25N 38°42' W 009°13'0 0.0
2015-Mar-26 05:16N 38°42' W 009°13'0 0.0
2015-Mar-25 22:19N 38°42' W 009°13'0 0.0
2015-Mar-25 20:19N 38°42' W 009°13'0 0.0
2015-Mar-25 19:22N 38°42' W 009°13'  
Track history (hours):
 
Tides and Currents Weather Stations Pressure Air Temp Water Temp Dewpoint Dewpoint Depression Visibility Wind Speed Wind Dir Waves Ship Positions

Magnum 1

Last reported at 2015-Mar-28 18:09 UTC. Time now 2015-Mar-31 09:47 UTC.
Position N 38°42' W 009°13'.

Length 11 m.

Type: Sailing vessel. MMSI: 263970000.

Date/timePositionNaut miles runAvg speedWind from/ knotsBaromVisibWave heightAir tempDewpointWater temp
2015-Mar-28 18:09N 38°42' W 009°13'0 0.3
2015-Mar-28 17:25N 38°41' W 009°13'4 4.6
2015-Mar-28 16:33N 38°41' W 009°18'1 1.0
2015-Mar-28 15:31N 38°41' W 009°19'0 0.0
2015-Mar-28 14:22N 38°41' W 009°19'1 0.7
2015-Mar-28 13:32N 38°41' W 009°18'5 0.1
2015-Mar-26 16:31N 38°42' W 009°13'0 0.0
2015-Mar-26 14:31N 38°42' W 009°13'0 0.0
2015-Mar-26 12:25N 38°42' W 009°13'0 0.0
2015-Mar-26 10:13N 38°42' W 009°13'0 0.0
2015-Mar-26 09:07N 38°42' W 009°13'0 0.0
2015-Mar-26 08:25N 38°42' W 009°13'0 0.0
2015-Mar-26 05:16N 38°42' W 009°13'0 0.0
2015-Mar-25 22:19N 38°42' W 009°13'0 0.0
2015-Mar-25 20:19N 38°42' W 009°13'0 0.0
2015-Mar-25 19:22N 38°42' W 009°13'  

Dump ship's entire track history